Bookmark and Share
Track history (hours):
 

Bk Champ

Last reported at 2014-Jan-19 22:30 UTC. Time now 2014-Apr-24 09:19 UTC.
Position N 38°55' E 118°04'.
Warning: this ship's position is months out of date.

Length 176 m; draft 5.8 m.

Type: Cargo ship. MMSI: 441299000.

NotesDate/timePositionNaut miles runAvg speedWind from/ knotsBaromVisibWave heightAir tempDewpointWater temp
2014-Jan-19 22:30N 38°55' E 118°04'9 9.9
2014-Jan-19 21:33N 38°58' E 117°52'6 6.3
2014-Jan-19 20:33N 38°59' E 117°44'0 0.0
2014-Jan-19 19:33N 38°59' E 117°44'0 0.0
2014-Jan-19 18:33N 38°59' E 117°44'0 0.0
2014-Jan-19 17:33N 38°59' E 117°44'0 0.0
2014-Jan-19 16:33N 38°59' E 117°44'0 0.0
2014-Jan-19 15:33N 38°59' E 117°44'0 0.0
2014-Jan-19 14:33N 38°59' E 117°44'0 0.0
2014-Jan-19 13:33N 38°59' E 117°44'0 0.0
2014-Jan-19 11:33N 38°59' E 117°44'0 0.0
2014-Jan-19 10:33N 38°59' E 117°44'0 0.0
2014-Jan-19 09:27N 38°59' E 117°44'0 0.0
2014-Jan-19 08:33N 38°59' E 117°44'0 0.0
2014-Jan-19 07:33N 38°59' E 117°44'0 0.0
2014-Jan-19 06:33N 38°59' E 117°44'0 0.0
2014-Jan-19 05:33N 38°59' E 117°44'0 0.0
2014-Jan-19 04:33N 38°59' E 117°44'0 0.0
2014-Jan-19 03:33N 38°59' E 117°44'0 0.0
2014-Jan-19 02:27N 38°59' E 117°44'0 0.0
2014-Jan-19 01:33N 38°59' E 117°44'0 0.0
2014-Jan-19 00:33N 38°59' E 117°44'0 0.0
2014-Jan-18 23:33N 38°59' E 117°44'0 0.0
2014-Jan-18 22:33N 38°59' E 117°44'0 0.0
2014-Jan-18 21:33N 38°59' E 117°44'0 0.0
2014-Jan-18 20:24N 38°59' E 117°44'0 0.0
2014-Jan-18 19:33N 38°59' E 117°44'0 0.0
2014-Jan-18 18:30N 38°59' E 117°44'0 0.0
2014-Jan-18 17:30N 38°59' E 117°44'0 0.0
2014-Jan-18 16:33N 38°59' E 117°44'0 0.0
2014-Jan-18 14:33N 38°59' E 117°44'0 0.0
2014-Jan-18 13:33N 38°59' E 117°44'0 0.0
2014-Jan-18 12:33N 38°59' E 117°44'0 0.0
2014-Jan-18 11:33N 38°59' E 117°44'0 0.0
2014-Jan-18 10:27N 38°59' E 117°44'0 0.0
2014-Jan-18 09:33N 38°59' E 117°44'0 0.0
2014-Jan-18 08:30N 38°59' E 117°44'0 0.0
2014-Jan-18 07:33N 38°59' E 117°44'0 0.0
2014-Jan-18 06:09N 38°59' E 117°44'0 0.0
2014-Jan-18 05:30N 38°59' E 117°44'0 0.0
2014-Jan-18 04:18N 38°59' E 117°44'0 0.0
2014-Jan-18 03:33N 38°59' E 117°44'0 0.0
2014-Jan-18 02:30N 38°59' E 117°44'0 0.0
2014-Jan-18 00:30N 38°59' E 117°44'0 0.0
2014-Jan-17 23:33N 38°59' E 117°44'0 0.0
2014-Jan-17 22:33N 38°59' E 117°44'0 0.0
2014-Jan-17 21:33N 38°59' E 117°44'0 0.0
2014-Jan-17 20:33N 38°59' E 117°44'0 0.0
2014-Jan-17 19:33N 38°59' E 117°44'0 0.0
2014-Jan-17 18:33N 38°59' E 117°44'0 0.0
2014-Jan-17 17:33N 38°59' E 117°44'0 0.0
2014-Jan-17 16:33N 38°59' E 117°44'0 0.0
2014-Jan-17 15:33N 38°59' E 117°44'0 0.0
2014-Jan-17 14:27N 38°59' E 117°44'0 0.0
2014-Jan-17 13:33N 38°59' E 117°44'0 0.0
2014-Jan-17 12:33N 38°59' E 117°44'4 3.9
2014-Jan-17 11:33N 38°58' E 117°49'11 8.5
2014-Jan-17 10:18N 38°58' E 118°03'1 0.3
2014-Jan-17 08:09N 38°58' E 118°03'0 0.1
2014-Jan-17 07:27N 38°58' E 118°03'0 0.1
2014-Jan-17 06:33N 38°58' E 118°03'0 0.0
2014-Jan-16 08:21N 38°58' E 118°03'0 0.1
2014-Jan-16 06:21N 38°58' E 118°03'0 0.0
2014-Jan-15 23:21N 38°58' E 118°03'0 0.0
2014-Jan-15 22:33N 38°58' E 118°03'0 0.0
2014-Jan-15 21:33N 38°58' E 118°03'0 0.1
2014-Jan-15 20:24N 38°58' E 118°03'0 0.0
2014-Jan-15 05:09N 38°58' E 118°03'0 0.0
2014-Jan-15 03:15N 38°58' E 118°03'0 0.0
2014-Jan-15 02:15N 38°58' E 118°03'0 0.0
2014-Jan-14 23:15N 38°58' E 118°03'0 0.0
2014-Jan-14 22:27N 38°58' E 118°03'0 0.0
2014-Jan-14 21:27N 38°58' E 118°03'0 0.0
2014-Jan-14 19:24N 38°58' E 118°03'0 0.1
2014-Jan-14 18:27N 38°58' E 118°03'0 0.0
2014-Jan-14 16:27N 38°58' E 118°03'0 0.0
2014-Jan-14 15:33N 38°58' E 118°03'0 0.0
2014-Jan-14 13:21N 38°58' E 118°03'0 0.1
2014-Jan-14 12:33N 38°58' E 118°03'0 0.0
2014-Jan-14 11:30N 38°58' E 118°03'0 0.0
2014-Jan-14 10:33N 38°58' E 118°03'0 0.0
2014-Jan-14 08:24N 38°58' E 118°03'0 0.0
2014-Jan-14 07:30N 38°58' E 118°03'0 0.0
2014-Jan-14 04:24N 38°58' E 118°03'0 0.0
2014-Jan-13 17:06N 38°58' E 118°03'0 0.0
2014-Jan-13 07:30N 38°58' E 118°03'0 0.0
2014-Jan-13 00:24N 38°58' E 118°03'0 0.0
2014-Jan-12 23:30N 38°58' E 118°03'0 0.0
2014-Jan-12 19:06N 38°58' E 118°03'0 0.0
2014-Jan-12 18:30N 38°58' E 118°03'0 0.0
2014-Jan-12 17:30N 38°58' E 118°03'0 0.0
2014-Jan-12 16:30N 38°58' E 118°03'0 0.0
2014-Jan-12 15:30N 38°58' E 118°03'0 0.0
2014-Jan-12 14:18N 38°58' E 118°03'0 0.0
2014-Jan-12 12:12N 38°58' E 118°03'0 0.1
2014-Jan-12 11:18N 38°58' E 118°03'0 0.0
2014-Jan-12 10:24N 38°58' E 118°03'0 0.1
2014-Jan-12 09:12N 38°58' E 118°03'0 0.0
2014-Jan-12 07:24N 38°58' E 118°03'0 0.0
2014-Jan-12 06:18N 38°58' E 118°03'0 0.0
2014-Jan-11 23:24N 38°58' E 118°03'0 0.1
2014-Jan-11 21:30N 38°58' E 118°03'0 0.1
2014-Jan-11 19:30N 38°58' E 118°03'0 0.0
2014-Jan-11 18:30N 38°58' E 118°03'0 0.1
2014-Jan-11 17:30N 38°58' E 118°03'0 0.0
2014-Jan-11 16:12N 38°58' E 118°03'0 0.0
2014-Jan-11 08:18N 38°58' E 118°03'0 0.0
2014-Jan-11 07:30N 38°58' E 118°03'0 0.0
2014-Jan-11 04:18N 38°58' E 118°03'0 0.0
2014-Jan-10 23:24N 38°58' E 118°03'0 0.1
2014-Jan-10 21:30N 38°58' E 118°03'0 0.0
2014-Jan-10 18:08N 38°58' E 118°03'2 4.1
2014-Jan-10 17:32N 38°57' E 118°06'19611.2
2014-Jan-10 00:08N 37°58' E 122°04'1011.6
2014-Jan-09 23:19N 37°52' E 122°13'  

Dump ship's entire track history

sailing weather and tide predictions

Bk Champ — DSPN5 — position and weather